Raynham Center, Massachusetts
Current Conditions -  °F | °C
As of 3:52 AM on Thursday 18 Dec 2014 (Local Time) from KTAN Reporting Station
Overcast Overcast  
Wind Chill: 35°   Ceiling: 6000
Heat Index: 39°   Visibility: 10mi
Dew Point: 29°   Wind: 6mph
Humidity: 67%   Direction: 280°W
Pressure: 29.73"   Gusts: NA
Location:  41.93°N, 71.04°W
Report Text: KTAN 180852Z AUTO 28005KT 10SM OVC060 04/M02 A2973 RMK AO2 SLP066 T00391017 58002
Loading
Personal Weather Stations






























Interactive Weather Map New forecast layout! Learn more

10-Day Weather Forecast

Advertisements
Track Severe Weather on mobile